Ashcamp, Kentucky
Current Conditions -  °F | °C
As of 9:15 AM on Thursday 29 Jan 2015 (Local Time) from KLNP Reporting Station
Clear Clear  
Wind Chill: 33°   Ceiling: Unl
Heat Index: 39°   Visibility: 10mi
Dew Point: 14°   Wind: 9mph
Humidity: 36%   Direction: 230°SW
Pressure: 30.09"   Gusts: NA
Location:  37.27°N, 82.43°W
Report Text: KLNP 291415Z AUTO 23008KT 10SM CLR 04/M10 A3009 RMK AO2
Loading
Personal Weather Stations






























Interactive Weather Map New forecast layout! Learn more

10-Day Weather Forecast

Advertisements
Track Severe Weather on mobile